Time;durP1;ratioP1;P1;durP2;ratioP2;P2;SDS_P1;SDS_P2;PMS_P1;PMS_P2;Temp;Humidity;BMP_temperature;BMP_pressure;BME280_temperature;BME280_humidity;BME280_pressure;Samples;Min_cycle;Max_cycle;Signal;HPM_P1;HPM_P2
2023/11/14 00:00:23;;;;;;;0.60;0.25;;;;;;;10.89;90.11;151412.91;10379377;28;20069;-75
2023/11/14 00:05:25;;;;;;;0.68;0.35;;;;;;;10.83;88.87;151398.72;10379691;28;20045;-75
2023/11/14 00:10:26;;;;;;;0.30;0.13;;;;;;;10.75;87.65;151378.03;10377948;28;20053;-76
2023/11/14 00:15:28;;;;;;;1.75;0.70;;;;;;;10.73;87.87;151372.91;10379392;28;20068;-75
2023/11/14 00:20:30;;;;;;;0.32;0.22;;;;;;;10.83;86.50;151398.72;10379524;28;20041;-76
2023/11/14 00:25:32;;;;;;;0.63;0.30;;;;;;;10.79;85.49;151388.38;10379615;28;20049;-75
2023/11/14 00:30:37;;;;;;;1.30;0.40;;;;;;;10.69;86.08;151363.84;10377520;28;20129;-76
2023/11/14 00:35:39;;;;;;;2.00;0.50;;;;;;;10.46;87.74;151305.75;10377586;28;20521;-75
2023/11/14 00:40:41;;;;;;;1.60;0.40;;;;;;;10.53;87.12;151323.81;10376590;28;20064;-75
2023/11/14 00:45:43;;;;;;;2.03;0.60;;;;;;;10.62;85.18;151345.75;10376684;28;20390;-76
2023/11/14 00:50:44;;;;;;;1.80;0.40;;;;;;;10.59;83.69;151338.03;10377015;28;20062;-74
2023/11/14 00:55:47;;;;;;;1.27;0.38;;;;;;;10.49;84.67;151312.19;10378712;28;20117;-74
2023/11/14 01:00:48;;;;;;;1.38;0.40;;;;;;;10.56;85.89;151331.56;10375620;28;20050;-75
2023/11/14 01:05:54;;;;;;;1.67;0.40;;;;;;;10.88;83.83;151410.34;10375994;28;20050;-74
2023/11/14 01:10:55;;;;;;;1.70;0.40;;;;;;;10.63;86.69;151347.09;10375931;28;20088;-73
2023/11/14 01:15:57;;;;;;;2.15;0.30;;;;;;;10.66;86.12;151354.81;10377012;28;20125;-74
2023/11/14 01:20:59;;;;;;;1.63;0.45;;;;;;;10.54;86.17;151326.44;10376344;28;20042;-74
2023/11/14 01:26:03;;;;;;;1.25;0.40;;;;;;;10.75;83.87;151378.03;10375696;28;20034;-74
2023/11/14 01:31:04;;;;;;;1.65;0.57;;;;;;;10.69;84.11;151362.56;10376333;28;20489;-73
2023/11/14 01:36:07;;;;;;;1.75;0.40;;;;;;;10.67;83.94;151357.38;10376268;28;20048;-77
2023/11/14 01:41:08;;;;;;;5.03;0.70;;;;;;;10.54;83.99;151326.44;10375976;28;20073;-75
2023/11/14 01:46:17;;;;;;;3.97;0.50;;;;;;;10.65;82.16;151352.22;10376582;28;20068;-75
2023/11/14 01:51:21;;;;;;;2.85;0.43;;;;;;;10.63;82.07;151348.38;10375835;28;20096;-75
2023/11/14 01:56:23;;;;;;;2.70;0.60;;;;;;;10.61;81.15;151344.47;10376561;28;20078;-76
2023/11/14 02:01:26;;;;;;;2.88;0.52;;;;;;;10.52;80.74;151321.22;10374179;28;20046;-75
2023/11/14 02:06:30;;;;;;;3.00;1.50;;;;;;;10.44;80.34;151299.28;10375515;28;20053;-75
2023/11/14 02:11:32;;;;;;;4.00;0.90;;;;;;;10.58;78.72;151336.75;10375242;28;20045;-75
2023/11/14 02:16:50;;;;;;;3.15;0.63;;;;;;;10.56;78.01;151331.56;10375237;28;20045;-75
2023/11/14 02:21:52;;;;;;;2.30;0.45;;;;;;;10.35;79.12;151277.34;10373831;28;20053;-75
2023/11/14 02:26:54;;;;;;;3.35;0.52;;;;;;;10.56;77.43;151331.56;10373515;28;20510;-75
2023/11/14 02:31:56;;;;;;;2.00;0.50;;;;;;;10.54;76.81;151326.44;10374096;28;20449;-75
2023/11/14 02:36:58;;;;;;;3.00;0.73;;;;;;;10.50;76.82;151316.09;10374914;28;20045;-76
2023/11/14 02:42:00;;;;;;;3.25;0.57;;;;;;;10.47;76.68;151308.31;10375048;28;20049;-75
2023/11/14 02:47:02;;;;;;;2.85;0.57;;;;;;;10.64;75.53;151350.94;10374773;28;20125;-75
2023/11/14 02:52:04;;;;;;;3.05;0.60;;;;;;;10.47;77.36;151307.03;10373434;28;20133;-75
2023/11/14 02:57:07;;;;;;;2.55;0.73;;;;;;;10.51;77.19;151318.66;10372672;28;20072;-76
2023/11/14 03:02:09;;;;;;;2.33;0.60;;;;;;;10.52;76.89;151321.22;10374203;28;20045;-76
2023/11/14 03:07:11;;;;;;;2.88;0.50;;;;;;;10.74;74.94;151375.47;10363143;28;20060;-75
2023/11/14 03:12:13;;;;;;;4.03;0.73;;;;;;;10.69;74.89;151362.56;10379657;28;20061;-75
2023/11/14 03:17:17;;;;;;;1.42;0.47;;;;;;;10.74;74.30;151376.75;10381056;28;20050;-75
2023/11/14 03:22:19;;;;;;;2.25;0.77;;;;;;;10.73;74.09;151372.91;10379651;28;20054;-75
2023/11/14 03:27:21;;;;;;;2.28;0.68;;;;;;;10.75;73.84;151378.03;10379367;28;20093;-75
2023/11/14 03:32:23;;;;;;;4.10;0.70;;;;;;;10.81;73.72;151394.84;10380032;28;20061;-75
2023/11/14 03:37:25;;;;;;;3.83;0.52;;;;;;;10.86;72.83;151406.47;10380338;28;20050;-75
2023/11/14 03:42:27;;;;;;;1.30;0.55;;;;;;;10.63;74.98;151347.09;10378824;28;20129;-76
2023/11/14 03:47:28;;;;;;;2.28;0.60;;;;;;;10.78;73.13;151387.09;10379595;28;20107;-75
2023/11/14 03:52:31;;;;;;;1.90;0.50;;;;;;;10.88;72.08;151411.63;10380806;28;20080;-75
2023/11/14 03:57:33;;;;;;;2.15;0.80;;;;;;;10.81;72.53;151394.84;10380017;28;20049;-75
2023/11/14 04:02:37;;;;;;;3.20;0.52;;;;;;;10.96;71.54;151432.28;10380589;28;20041;-75
2023/11/14 04:07:39;;;;;;;7.53;1.00;;;;;;;10.74;72.99;151375.47;10377885;28;20045;-75
2023/11/14 04:12:40;;;;;;;4.35;0.73;;;;;;;10.77;72.78;151384.53;10378080;28;20046;-75
2023/11/14 04:17:42;;;;;;;1.38;0.35;;;;;;;10.81;72.59;151393.56;10376521;28;20042;-75
2023/11/14 04:22:44;;;;;;;3.85;0.80;;;;;;;10.55;73.54;151329.00;10376905;28;20092;-74
2023/11/14 04:27:46;;;;;;;2.20;0.55;;;;;;;10.71;73.22;151369.00;10377983;28;20046;-75
2023/11/14 04:32:48;;;;;;;2.17;0.85;;;;;;;10.59;74.49;151339.31;10377660;28;20049;-74
2023/11/14 04:37:55;;;;;;;3.00;0.68;;;;;;;10.67;73.18;151358.72;10376550;28;20053;-74
2023/11/14 04:42:57;;;;;;;3.17;0.70;;;;;;;10.63;73.21;151348.38;10377747;28;20477;-74
2023/11/14 04:47:59;;;;;;;3.20;0.55;;;;;;;10.50;74.01;151316.09;10377851;28;20050;-73
2023/11/14 04:53:01;;;;;;;3.85;0.68;;;;;;;10.55;73.85;151327.72;10359861;28;20049;-74
2023/11/14 04:58:03;;;;;;;3.20;0.47;;;;;;;10.35;74.71;151277.34;10377059;28;20046;-74
2023/11/14 05:03:05;;;;;;;4.57;0.40;;;;;;;10.23;75.37;151246.34;10378018;28;20045;-75
2023/11/14 05:08:07;;;;;;;4.25;0.52;;;;;;;10.21;75.54;151241.16;10377635;28;20052;-74
2023/11/14 05:13:09;;;;;;;2.40;0.80;;;;;;;10.27;74.71;151256.66;10377743;28;20042;-74
2023/11/14 05:18:11;;;;;;;3.00;0.52;;;;;;;10.11;75.32;151217.91;10377043;28;20045;-75
2023/11/14 05:23:13;;;;;;;2.85;0.57;;;;;;;10.29;74.08;151261.84;10377503;28;20045;-75
2023/11/14 05:28:15;;;;;;;3.88;0.65;;;;;;;10.22;74.13;151245.00;10375733;28;20048;-74
2023/11/14 05:33:17;;;;;;;2.47;0.60;;;;;;;10.33;73.39;151273.47;10376641;28;20049;-74
2023/11/14 05:38:18;;;;;;;3.40;0.80;;;;;;;10.44;72.36;151299.28;10375264;28;20157;-74
2023/11/14 05:43:20;;;;;;;3.50;0.70;;;;;;;10.54;71.88;151325.13;10376122;28;20560;-74
2023/11/14 05:48:22;;;;;;;2.45;0.70;;;;;;;10.44;72.34;151300.56;10376090;28;20469;-74
2023/11/14 05:53:24;;;;;;;5.80;0.85;;;;;;;10.48;72.50;151309.63;10376369;28;20045;-74
2023/11/14 05:58:26;;;;;;;4.03;1.05;;;;;;;10.66;70.76;151356.09;10374381;28;20417;-74
2023/11/14 06:03:28;;;;;;;4.05;0.90;;;;;;;10.55;71.24;151329.00;10358259;28;20084;-74
2023/11/14 06:08:30;;;;;;;2.15;0.45;;;;;;;10.55;71.70;151327.72;10375642;28;20125;-73
2023/11/14 06:13:32;;;;;;;3.58;1.02;;;;;;;10.55;71.35;151327.72;10376722;28;20125;-74
2023/11/14 06:18:34;;;;;;;5.07;0.70;;;;;;;10.49;71.43;151313.53;10374878;28;20054;-74
2023/11/14 06:23:36;;;;;;;2.78;0.60;;;;;;;10.44;71.96;151300.56;10375934;28;20046;-75
2023/11/14 06:28:38;;;;;;;6.03;1.05;;;;;;;10.44;71.60;151299.28;10375026;28;20112;-74
2023/11/14 06:33:40;;;;;;;3.38;0.65;;;;;;;10.48;71.89;151310.91;10375689;28;20046;-74
2023/11/14 06:38:42;;;;;;;3.63;1.08;;;;;;;10.51;71.33;151318.66;10378177;28;20493;-75
2023/11/14 06:43:43;;;;;;;3.83;0.80;;;;;;;10.55;71.33;151327.72;10382050;28;20473;-75
2023/11/14 06:48:45;;;;;;;4.55;0.80;;;;;;;10.57;71.72;151334.13;10382424;28;20048;-74
2023/11/14 06:53:48;;;;;;;4.82;0.90;;;;;;;10.61;71.36;151344.47;10384080;28;20069;-74
2023/11/14 06:58:49;;;;;;;4.82;1.00;;;;;;;10.60;71.67;151340.63;10381557;28;20080;-74
2023/11/14 07:03:51;;;;;;;4.10;1.08;;;;;;;10.61;72.09;151344.47;10382144;28;20521;-73
2023/11/14 07:08:53;;;;;;;6.68;0.70;;;;;;;10.57;72.19;151334.13;10381611;28;20056;-73
2023/11/14 07:13:55;;;;;;;3.42;1.45;;;;;;;10.64;72.37;151350.94;10382180;28;20042;-74
2023/11/14 07:18:57;;;;;;;2.85;0.60;;;;;;;10.67;72.84;151357.38;10379827;28;20088;-74
2023/11/14 07:23:59;;;;;;;6.53;0.82;;;;;;;10.65;72.45;151353.53;10381359;28;20461;-74
2023/11/14 07:29:02;;;;;;;2.75;0.85;;;;;;;10.81;72.13;151393.56;10381781;28;20095;-73
2023/11/14 07:34:03;;;;;;;5.10;1.27;;;;;;;10.90;71.44;151416.81;10380048;28;20073;-74
2023/11/14 07:39:05;;;;;;;2.35;0.82;;;;;;;10.92;71.81;151421.94;10379945;28;20466;-73
2023/11/14 07:44:09;;;;;;;2.10;0.77;;;;;;;10.91;72.13;151419.38;10379624;28;20136;-74
2023/11/14 07:49:11;;;;;;;3.22;0.60;;;;;;;11.00;71.78;151442.63;10378998;28;20046;-74
2023/11/14 07:54:14;;;;;;;5.38;0.75;;;;;;;10.98;72.58;151437.47;10379275;28;20125;-72
2023/11/14 07:59:15;;;;;;;5.03;0.98;;;;;;;11.07;71.79;151460.72;10380512;28;20088;-72
2023/11/14 08:04:17;;;;;;;3.67;0.70;;;;;;;11.10;72.13;151467.16;10378609;28;20042;-72
2023/11/14 08:09:20;;;;;;;3.78;1.00;;;;;;;11.15;71.01;151478.78;10379735;28;20104;-72
2023/11/14 08:14:22;;;;;;;5.18;1.02;;;;;;;11.22;70.96;151496.88;10379319;28;20038;-72
2023/11/14 08:19:24;;;;;;;6.20;0.85;;;;;;;11.19;71.48;151490.41;10379390;28;20064;-73
2023/11/14 08:24:25;;;;;;;6.57;1.17;;;;;;;11.41;70.65;151545.97;10379134;28;20038;-72
2023/11/14 08:29:27;;;;;;;6.47;1.05;;;;;;;11.67;69.64;151610.56;10378996;28;20076;-72
2023/11/14 08:34:29;;;;;;;3.55;0.98;;;;;;;11.72;68.87;151624.78;10378550;28;20124;-72
2023/11/14 08:39:30;;;;;;;3.35;1.00;;;;;;;11.82;68.75;151649.31;10378692;28;20567;-72
2023/11/14 08:44:32;;;;;;;4.28;1.13;;;;;;;11.89;68.00;151666.19;10379234;28;20053;-72
2023/11/14 08:49:34;;;;;;;3.33;0.90;;;;;;;11.69;68.85;151615.78;10380205;28;20042;-72
2023/11/14 08:54:37;;;;;;;1.92;0.57;;;;;;;11.70;68.90;151618.34;10381373;28;20117;-73
2023/11/14 08:59:40;;;;;;;2.95;0.77;;;;;;;11.94;68.17;151679.13;10360353;28;20053;-74
2023/11/14 09:04:42;;;;;;;4.78;1.30;;;;;;;11.91;68.41;151671.34;10376596;28;20133;-74
2023/11/14 09:09:46;;;;;;;4.82;0.98;;;;;;;11.86;67.96;151659.72;10375685;28;20558;-73
2023/11/14 09:14:48;;;;;;;3.13;0.75;;;;;;;11.87;68.69;151662.34;10376722;28;20030;-73
2023/11/14 09:19:52;;;;;;;2.70;0.95;;;;;;;12.09;67.18;151719.22;10377131;28;20057;-72
2023/11/14 09:24:54;;;;;;;9.35;1.75;;;;;;;12.12;67.28;151725.63;10376436;28;20042;-73
2023/11/14 09:29:56;;;;;;;2.75;0.70;;;;;;;12.14;67.24;151730.84;10376402;28;20049;-72
2023/11/14 09:34:58;;;;;;;4.85;0.70;;;;;;;12.32;66.25;151777.38;10376057;28;20092;-74
2023/11/14 09:40:00;;;;;;;4.05;1.50;;;;;;;12.33;66.89;151779.94;10374616;28;20056;-72
2023/11/14 09:45:04;;;;;;;3.08;0.60;;;;;;;12.46;66.09;151812.28;10375087;28;20038;-74
2023/11/14 09:50:07;;;;;;;4.07;0.88;;;;;;;12.35;65.52;151785.16;10375790;28;20042;-74
2023/11/14 09:55:11;;;;;;;4.95;0.85;;;;;;;12.29;65.71;151769.59;10375298;28;20413;-73
2023/11/14 10:00:13;;;;;;;3.80;0.90;;;;;;;12.34;65.57;151781.22;10374716;28;20037;-74
2023/11/14 10:05:16;;;;;;;4.00;0.85;;;;;;;12.45;65.65;151809.69;10375066;28;20042;-73
2023/11/14 10:10:19;;;;;;;2.10;1.00;;;;;;;12.53;65.51;151829.09;10375677;28;20042;-73
2023/11/14 10:15:41;;;;;;;4.18;1.15;;;;;;;12.58;65.84;151842.03;10385958;28;20134;-73
2023/11/14 10:20:43;;;;;;;3.15;0.98;;;;;;;12.69;65.05;151870.44;10388824;28;20042;-73
2023/11/14 10:25:49;;;;;;;4.20;0.90;;;;;;;12.68;64.86;151867.88;10388645;28;20415;-73
2023/11/14 10:30:56;;;;;;;1.63;0.85;;;;;;;12.68;64.68;151867.88;10387288;28;20422;-73
2023/11/14 10:36:17;;;;;;;2.60;0.50;;;;;;;12.67;65.78;151864.03;10389071;28;20076;-72
2023/11/14 10:41:23;;;;;;;3.72;1.17;;;;;;;12.69;65.25;151869.16;10388136;28;20046;-74
2023/11/14 10:46:26;;;;;;;5.10;1.00;;;;;;;12.62;65.65;151852.38;10388548;28;20129;-74
2023/11/14 10:51:29;;;;;;;3.45;0.70;;;;;;;12.70;65.74;151871.75;10389881;28;20299;-73
2023/11/14 10:56:32;;;;;;;7.63;0.80;;;;;;;12.79;65.45;151895.00;10387631;28;20069;-74
2023/11/14 11:01:46;;;;;;;3.38;0.77;;;;;;;13.13;64.38;151981.69;10386815;28;20034;-73
2023/11/14 11:06:48;;;;;;;2.38;0.70;;;;;;;13.05;64.29;151961.00;10386482;28;20145;-74
2023/11/14 11:11:54;;;;;;;3.85;0.80;;;;;;;12.84;64.80;151908.00;10387454;28;20042;-73
2023/11/14 11:16:57;;;;;;;2.75;0.52;;;;;;;12.79;64.53;151896.34;10387459;28;20050;-73
2023/11/14 11:22:03;;;;;;;3.10;0.80;;;;;;;12.72;65.06;151878.22;10387103;28;20044;-73
2023/11/14 11:27:25;;;;;;;6.03;0.87;;;;;;;12.67;65.61;151865.31;10380638;28;20153;-74
2023/11/14 11:32:27;;;;;;;2.30;0.82;;;;;;;12.69;65.21;151870.44;10381482;28;20088;-74
2023/11/14 11:37:53;;;;;;;1.60;0.60;;;;;;;12.78;65.02;151892.44;10381411;28;20042;-73
2023/11/14 11:43:09;;;;;;;2.13;0.80;;;;;;;12.82;65.42;151904.06;10380004;28;20093;-73
2023/11/14 11:48:32;;;;;;;4.63;0.97;;;;;;;12.91;64.55;151926.06;10381551;28;20413;-73
2023/11/14 11:53:40;;;;;;;3.20;0.52;;;;;;;12.66;66.11;151862.72;10382430;28;20474;-73
2023/11/14 11:58:49;;;;;;;3.45;0.80;;;;;;;12.71;64.54;151875.66;10382019;28;20104;-73
2023/11/14 12:03:50;;;;;;;3.17;0.60;;;;;;;12.77;64.42;151889.88;10383744;28;20045;-73
2023/11/14 12:08:54;;;;;;;2.63;0.82;;;;;;;12.85;64.38;151911.84;10379203;28;20413;-73
2023/11/14 12:13:56;;;;;;;5.60;2.03;;;;;;;12.78;64.13;151893.72;10379144;28;20092;-74
2023/11/14 12:18:57;;;;;;;3.88;0.68;;;;;;;12.83;63.86;151905.38;10378553;28;20073;-75
2023/11/14 12:24:02;;;;;;;4.47;0.70;;;;;;;12.96;63.59;151937.72;10378994;28;20046;-74
2023/11/14 12:29:09;;;;;;;2.60;0.75;;;;;;;12.83;63.53;151906.66;10379460;28;20413;-73
2023/11/14 12:34:11;;;;;;;3.22;0.90;;;;;;;12.80;63.79;151898.94;10379533;28;20041;-73
2023/11/14 12:39:16;;;;;;;3.03;0.85;;;;;;;12.86;64.66;151913.16;10379518;28;20048;-73
2023/11/14 12:44:18;;;;;;;2.28;0.55;;;;;;;12.78;64.25;151893.72;10376554;28;20464;-73
2023/11/14 12:49:22;;;;;;;2.78;0.82;;;;;;;12.79;63.74;151895.00;10378024;28;20069;-73
2023/11/14 12:54:25;;;;;;;5.40;0.88;;;;;;;12.75;64.68;151884.66;10377790;28;20042;-74
2023/11/14 12:59:27;;;;;;;2.65;0.55;;;;;;;12.41;69.41;151798.06;10378140;28;20100;-75
2023/11/14 13:04:29;;;;;;;2.88;0.70;;;;;;;11.93;76.89;151677.84;10377495;28;20045;-72
2023/11/14 13:09:31;;;;;;;2.78;0.70;;;;;;;11.77;79.84;151637.69;10376869;28;20112;-73
2023/11/14 13:14:33;;;;;;;6.60;1.67;;;;;;;11.59;82.42;151591.19;10376323;28;20041;-73
2023/11/14 13:19:38;;;;;;;6.32;1.85;;;;;;;11.41;83.72;151544.69;10377019;28;20489;-74
2023/11/14 13:24:40;;;;;;;7.22;1.88;;;;;;;11.57;81.43;151587.31;10376654;28;20037;-74
2023/11/14 13:29:41;;;;;;;2.45;0.80;;;;;;;11.67;79.68;151611.88;10377487;28;20073;-72
2023/11/14 13:34:43;;;;;;;4.07;1.30;;;;;;;11.70;79.86;151618.34;10389764;23;20034;-73
2023/11/14 13:39:46;;;;;;;4.72;1.17;;;;;;;11.88;77.63;151664.91;10362469;28;20050;-73
2023/11/14 13:44:48;;;;;;;2.92;0.57;;;;;;;11.92;75.79;151675.25;10382402;28;20064;-72
2023/11/14 13:49:50;;;;;;;2.05;0.77;;;;;;;12.14;73.98;151729.56;10419856;28;20046;-73
2023/11/14 13:54:52;;;;;;;3.40;0.75;;;;;;;12.05;74.80;151707.56;10420960;28;20459;-73
2023/11/14 13:59:55;;;;;;;4.43;1.00;;;;;;;12.20;73.32;151745.03;10418767;28;20045;-73
2023/11/14 14:04:59;;;;;;;3.90;0.73;;;;;;;12.18;73.35;151739.91;10418832;28;20417;-73
2023/11/14 14:10:02;;;;;;;2.17;0.50;;;;;;;12.27;72.52;151764.44;10419660;28;20496;-73
2023/11/14 14:15:07;;;;;;;2.10;0.60;;;;;;;12.28;72.27;151767.03;10420830;28;20132;-73
2023/11/14 14:20:17;;;;;;;3.00;0.55;;;;;;;12.30;72.43;151772.16;10419629;28;20041;-73
2023/11/14 14:25:19;;;;;;;4.13;0.50;;;;;;;12.33;71.66;151778.66;10418632;28;20059;-73
2023/11/14 14:30:22;;;;;;;2.42;0.60;;;;;;;12.26;72.39;151760.53;10418104;28;20107;-72
2023/11/14 14:35:24;;;;;;;2.03;0.77;;;;;;;12.27;72.28;151763.16;10428653;28;20105;-73
2023/11/14 14:40:26;;;;;;;2.13;0.50;;;;;;;12.10;73.98;151721.78;10451985;28;20037;-73
2023/11/14 14:45:28;;;;;;;1.27;0.45;;;;;;;12.03;75.02;151702.38;10417460;28;20068;-73
2023/11/14 14:50:30;;;;;;;2.08;0.50;;;;;;;12.13;74.24;151728.25;10436214;28;20036;-73
2023/11/14 14:55:32;;;;;;;2.40;0.60;;;;;;;12.29;73.06;151768.31;10461097;28;20411;-73
2023/11/14 15:00:34;;;;;;;0.88;0.47;;;;;;;12.26;73.29;151760.53;10464058;28;20076;-73
2023/11/14 15:05:37;;;;;;;1.92;0.40;;;;;;;12.18;74.08;151739.91;10463538;28;20069;-73
2023/11/14 15:10:39;;;;;;;0.70;0.40;;;;;;;12.21;73.19;151747.63;10425223;28;20049;-73
2023/11/14 15:15:41;;;;;;;2.53;0.60;;;;;;;12.05;74.40;151708.88;10424285;28;20120;-74
2023/11/14 15:20:46;;;;;;;2.45;0.43;;;;;;;11.96;75.28;151685.59;10426732;28;20049;-73
2023/11/14 15:25:48;;;;;;;1.30;0.43;;;;;;;11.88;75.80;151663.63;10394724;28;20422;-73
2023/11/14 15:30:50;;;;;;;2.83;0.63;;;;;;;11.78;76.30;151639.03;10384009;28;20049;-73
2023/11/14 15:35:51;;;;;;;1.42;0.50;;;;;;;11.72;77.49;151623.50;10382507;28;20052;-72
2023/11/14 15:40:53;;;;;;;1.50;0.50;;;;;;;11.58;79.43;151588.59;10383977;28;20072;-73
2023/11/14 15:45:55;;;;;;;3.00;1.15;;;;;;;11.48;81.20;151564.06;10384071;28;20045;-72
2023/11/14 15:51:02;;;;;;;1.98;0.50;;;;;;;11.40;81.99;151542.09;10382958;28;20057;-72
2023/11/14 15:56:04;;;;;;;2.28;1.23;;;;;;;11.29;83.57;151516.28;10365416;28;20042;-72
2023/11/14 16:01:06;;;;;;;3.05;0.60;;;;;;;11.27;84.16;151511.09;10385884;28;20056;-72
2023/11/14 16:06:08;;;;;;;1.63;0.50;;;;;;;11.16;84.92;151482.69;10385424;28;20042;-73
2023/11/14 16:11:10;;;;;;;3.75;0.60;;;;;;;11.23;84.30;151500.75;10382971;28;20073;-72
2023/11/14 16:16:12;;;;;;;1.30;0.50;;;;;;;11.21;84.28;151495.59;10382571;28;20045;-72
2023/11/14 16:21:14;;;;;;;1.80;0.77;;;;;;;11.14;85.05;151476.22;10383476;28;20133;-73
2023/11/14 16:26:16;;;;;;;3.17;0.73;;;;;;;11.22;83.99;151498.16;10383590;28;20053;-73
2023/11/14 16:31:17;;;;;;;2.97;1.00;;;;;;;11.14;83.92;151476.22;10381761;28;20125;-72
2023/11/14 16:36:23;;;;;;;1.70;0.65;;;;;;;11.18;83.67;151486.56;10380868;28;20046;-72
2023/11/14 16:41:25;;;;;;;2.28;0.40;;;;;;;11.35;82.59;151530.47;10382050;28;20045;-73
2023/11/14 16:46:27;;;;;;;6.40;0.98;;;;;;;11.32;82.30;151524.00;10385373;28;20046;-74
2023/11/14 16:51:30;;;;;;;2.15;0.65;;;;;;;11.26;82.76;151508.50;10381223;28;20072;-73
2023/11/14 16:56:33;;;;;;;2.20;0.55;;;;;;;11.50;80.91;151569.22;10362792;28;20050;-71
2023/11/14 17:01:35;;;;;;;1.08;0.55;;;;;;;11.55;80.61;151580.84;10365519;28;20137;-72
2023/11/14 17:06:37;;;;;;;1.75;1.10;;;;;;;11.42;81.34;151547.25;10381880;28;20089;-72
2023/11/14 17:11:39;;;;;;;3.45;0.70;;;;;;;11.42;81.65;151547.25;10380153;28;20049;-72
2023/11/14 17:16:40;;;;;;;2.35;0.50;;;;;;;11.56;80.10;151584.75;10378534;28;20494;-73
2023/11/14 17:21:42;;;;;;;2.20;0.88;;;;;;;11.64;79.54;151604.09;10377570;28;20057;-72
2023/11/14 17:26:47;;;;;;;1.85;0.47;;;;;;;11.71;78.35;151622.22;10380421;28;20050;-72
2023/11/14 17:31:52;;;;;;;2.55;0.68;;;;;;;11.76;78.47;151633.84;10381689;28;20096;-72
2023/11/14 17:36:54;;;;;;;1.88;0.50;;;;;;;11.72;78.07;151624.78;10378767;28;20049;-72
2023/11/14 17:41:56;;;;;;;2.30;0.77;;;;;;;11.80;77.30;151644.19;10378346;28;20535;-72
2023/11/14 17:47:03;;;;;;;2.45;0.93;;;;;;;11.85;76.60;151658.44;10378425;28;20050;-73
2023/11/14 17:52:05;;;;;;;4.20;0.85;;;;;;;11.81;76.46;151646.75;10382852;28;20044;-72
2023/11/14 17:57:07;;;;;;;1.90;0.70;;;;;;;11.73;77.10;151626.06;10379393;28;20049;-72
2023/11/14 18:02:11;;;;;;;6.07;1.00;;;;;;;11.68;76.49;151614.44;10378354;28;20112;-72
2023/11/14 18:07:14;;;;;;;3.40;0.85;;;;;;;11.74;76.00;151628.69;10360278;28;20134;-73
2023/11/14 18:12:15;;;;;;;1.95;0.65;;;;;;;11.72;75.96;151623.50;10382369;28;20053;-73
2023/11/14 18:17:18;;;;;;;3.03;0.80;;;;;;;11.82;75.40;151650.72;10378643;28;20136;-73
2023/11/14 18:22:21;;;;;;;2.42;1.10;;;;;;;11.78;75.55;151640.31;10378226;28;20045;-73
2023/11/14 18:27:23;;;;;;;1.88;0.75;;;;;;;11.81;75.04;151648.03;10378907;28;20046;-73
2023/11/14 18:32:24;;;;;;;3.92;0.90;;;;;;;11.85;74.62;151658.44;10379341;28;20092;-72
2023/11/14 18:37:27;;;;;;;2.22;0.60;;;;;;;11.83;73.96;151653.28;10388009;28;20056;-74
2023/11/14 18:42:28;;;;;;;2.50;0.73;;;;;;;11.75;74.86;151631.25;10386227;28;20046;-73
2023/11/14 18:47:30;;;;;;;2.38;0.45;;;;;;;11.94;73.20;151680.41;10387053;28;20092;-73
2023/11/14 18:52:33;;;;;;;2.30;0.60;;;;;;;11.86;73.44;151659.72;10384115;28;20046;-73
2023/11/14 18:57:35;;;;;;;2.20;0.80;;;;;;;11.99;72.63;151692.03;10387972;28;20134;-73
2023/11/14 19:02:38;;;;;;;7.70;1.02;;;;;;;11.96;72.22;151684.31;10384564;28;20441;-73
2023/11/14 19:07:40;;;;;;;1.65;0.70;;;;;;;11.99;72.18;151692.03;10384607;28;20053;-73
2023/11/14 19:12:42;;;;;;;2.40;0.73;;;;;;;12.03;71.61;151702.38;10384507;28;20044;-73
2023/11/14 19:17:44;;;;;;;4.10;0.60;;;;;;;11.94;71.94;151680.41;10390295;28;20038;-74
2023/11/14 19:22:46;;;;;;;1.88;0.60;;;;;;;12.00;71.32;151695.94;10387998;28;20050;-73
2023/11/14 19:28:08;;;;;;;2.17;1.05;;;;;;;11.84;72.98;151654.56;10386912;28;20050;-74
2023/11/14 19:33:11;;;;;;;6.43;0.70;;;;;;;11.89;72.40;151666.19;10385797;28;20042;-73
2023/11/14 19:38:13;;;;;;;2.47;0.93;;;;;;;11.73;73.11;151627.41;10419014;23;20092;-74
2023/11/14 19:43:15;;;;;;;2.58;0.90;;;;;;;11.99;71.34;151692.03;10425749;28;20144;-75
2023/11/14 19:48:17;;;;;;;2.67;0.50;;;;;;;12.04;71.44;151706.28;10422640;28;20123;-75
2023/11/14 19:53:19;;;;;;;1.55;0.50;;;;;;;11.91;72.33;151672.69;10424403;28;20071;-76
2023/11/14 19:58:21;;;;;;;1.45;0.50;;;;;;;11.86;72.02;151659.72;10425291;28;20504;-74
2023/11/14 20:03:23;;;;;;;1.65;0.50;;;;;;;12.10;70.52;151720.50;10424090;28;20504;-75
2023/11/14 20:08:26;;;;;;;2.08;0.85;;;;;;;12.08;70.45;151715.28;10423613;28;20037;-74
2023/11/14 20:13:28;;;;;;;2.90;0.47;;;;;;;12.07;70.95;151712.72;10423847;28;20447;-74
2023/11/14 20:18:30;;;;;;;2.78;0.63;;;;;;;11.96;73.98;151684.31;10422321;28;20053;-74
2023/11/14 20:23:34;;;;;;;2.17;0.50;;;;;;;11.84;76.54;151654.56;10421684;28;20493;-74
2023/11/14 20:28:36;;;;;;;2.60;0.98;;;;;;;11.59;80.03;151592.47;10422773;28;20072;-74
2023/11/14 20:33:37;;;;;;;2.72;0.40;;;;;;;11.45;81.99;151555.00;10404214;28;20088;-74
2023/11/14 20:38:39;;;;;;;2.20;0.55;;;;;;;11.35;85.39;151530.47;10421592;28;20037;-74
2023/11/14 20:43:41;;;;;;;4.18;0.77;;;;;;;11.16;89.07;151482.69;10419692;28;20140;-75
2023/11/14 20:48:43;;;;;;;1.27;0.52;;;;;;;10.94;93.32;151425.88;10420550;28;20083;-76
2023/11/14 20:53:45;;;;;;;1.55;0.50;;;;;;;10.81;96.95;151394.84;10421389;28;20049;-74
2023/11/14 20:58:47;;;;;;;2.60;0.50;;;;;;;10.52;100.00;151319.94;10421817;28;20041;-75
2023/11/14 21:03:49;;;;;;;1.67;0.57;;;;;;;10.35;100.00;151277.34;10419861;28;20050;-75
2023/11/14 21:08:51;;;;;;;0.80;0.47;;;;;;;10.24;100.00;151248.91;10402136;28;20058;-76
2023/11/14 21:13:53;;;;;;;2.70;0.35;;;;;;;10.29;100.00;151263.16;10419908;28;20034;-75
2023/11/14 21:18:55;;;;;;;1.77;0.40;;;;;;;10.33;100.00;151272.19;10418423;28;20050;-76
2023/11/14 21:23:57;;;;;;;0.75;0.40;;;;;;;10.15;100.00;151226.97;10420508;28;20042;-74
2023/11/14 21:28:59;;;;;;;1.05;0.40;;;;;;;10.06;100.00;151205.03;10422674;28;20071;-75
2023/11/14 21:34:04;;;;;;;0.90;0.20;;;;;;;10.10;100.00;151215.34;10420886;28;20045;-74
2023/11/14 21:39:06;;;;;;;0.60;0.32;;;;;;;10.22;100.00;151245.00;10420334;28;20057;-76
2023/11/14 21:44:08;;;;;;;0.55;0.40;;;;;;;10.14;100.00;151223.06;10419165;28;20042;-75
2023/11/14 21:49:10;;;;;;;0.80;0.40;;;;;;;10.09;100.00;151212.78;10420375;28;20091;-75
2023/11/14 21:54:11;;;;;;;1.02;0.35;;;;;;;10.01;100.00;151190.84;10419615;28;20046;-75
2023/11/14 21:59:13;;;;;;;1.00;0.30;;;;;;;9.97;100.00;151180.50;10418290;28;20049;-75
2023/11/14 22:04:15;;;;;;;2.13;0.30;;;;;;;9.86;100.00;151153.38;10419712;28;20041;-76
2023/11/14 22:09:17;;;;;;;0.47;0.17;;;;;;;9.93;100.00;151171.47;10417873;28;20077;-75
2023/11/14 22:14:19;;;;;;;0.65;0.10;;;;;;;9.82;100.00;151144.34;10419412;28;20033;-74
2023/11/14 22:19:21;;;;;;;0.60;0.20;;;;;;;9.82;100.00;151144.34;10419630;28;20064;-74
2023/11/14 22:24:22;;;;;;;0.88;0.22;;;;;;;9.75;100.00;151125.00;10418079;28;20042;-74
2023/11/14 22:29:24;;;;;;;0.52;0.10;;;;;;;9.84;100.00;151149.53;10417995;28;20481;-75
2023/11/14 22:34:26;;;;;;;0.20;0.10;;;;;;;9.65;100.00;151100.50;10418558;28;20042;-75
2023/11/14 22:39:28;;;;;;;0.17;0.17;;;;;;;9.69;100.00;151110.78;10415716;28;20132;-75
2023/11/14 22:44:29;;;;;;;0.43;0.15;;;;;;;9.67;100.00;151104.38;10415934;28;20042;-75
2023/11/14 22:49:31;;;;;;;0.10;0.10;;;;;;;9.54;100.00;151072.09;10415292;28;20077;-74
2023/11/14 22:54:33;;;;;;;0.25;0.25;;;;;;;9.63;100.00;151094.03;10415768;28;20408;-74
2023/11/14 22:59:37;;;;;;;1.10;0.15;;;;;;;9.61;100.00;151090.19;10416486;28;20124;-75
2023/11/14 23:04:39;;;;;;;0.00;0.00;;;;;;;9.46;100.00;151052.75;10417168;28;20438;-74
2023/11/14 23:09:40;;;;;;;0.17;0.10;;;;;;;9.41;100.00;151039.84;10416076;28;20081;-74